createdAt,value
2023-05-12T00:02:13.315Z,99962.61
2023-05-12T00:04:41.959Z,99964.90
2023-05-12T00:07:10.223Z,99963.52
2023-05-12T00:09:38.613Z,99962.67
2023-05-12T00:12:07.454Z,99962.72
2023-05-12T00:14:36.599Z,99964.07
2023-05-12T00:17:06.820Z,99961.98
2023-05-12T00:19:37.139Z,99960.99
2023-05-12T00:22:05.551Z,99961.36
2023-05-12T00:24:33.761Z,99960.44
2023-05-12T00:27:02.247Z,99959.33
2023-05-12T00:29:30.876Z,99958.60
2023-05-12T00:32:02.791Z,99955.57
2023-05-12T00:34:30.964Z,99953.38
2023-05-12T00:36:59.289Z,99954.57
2023-05-12T00:39:27.687Z,99954.38
2023-05-12T00:41:57.943Z,99956.85
2023-05-12T00:44:26.311Z,99955.60
2023-05-12T00:46:56.079Z,99954.79
2023-05-12T00:49:37.040Z,99954.40
2023-05-12T00:52:06.784Z,99956.63
2023-05-12T00:54:55.948Z,99958.19
2023-05-12T00:57:28.090Z,99953.96
2023-05-12T00:59:56.676Z,99955.17
2023-05-12T01:02:25.853Z,99955.30
2023-05-12T01:04:57.246Z,99950.94
2023-05-12T01:07:26.844Z,99951.09
2023-05-12T01:10:00.690Z,99949.42
2023-05-12T01:12:29.955Z,99951.88
2023-05-12T01:14:58.882Z,99947.58
2023-05-12T01:17:36.283Z,99947.92
2023-05-12T01:20:12.197Z,99949.46
2023-05-12T01:22:41.553Z,99956.46
2023-05-12T01:25:13.317Z,99956.54
2023-05-12T01:27:43.397Z,99956.84
2023-05-12T01:30:16.208Z,99960.92
2023-05-12T01:32:45.190Z,99961.17
2023-05-12T01:35:14.104Z,99961.63
2023-05-12T01:37:42.961Z,99965.17
2023-05-12T01:40:12.558Z,99965.45
2023-05-12T01:42:43.363Z,99968.09
2023-05-12T01:45:12.010Z,99968.11
2023-05-12T01:47:40.314Z,99966.13
2023-05-12T01:50:08.937Z,99966.67
2023-05-12T01:52:37.240Z,99970.77
2023-05-12T01:55:06.552Z,99972.64
2023-05-12T01:57:38.362Z,99974.88
2023-05-12T02:00:08.794Z,99975.05
2023-05-12T02:02:40.210Z,99978.48
2023-05-12T02:05:09.879Z,99979.16
2023-05-12T02:07:38.661Z,99978.08
2023-05-12T02:10:09.334Z,99980.84
2023-05-12T02:12:39.007Z,99979.09
2023-05-12T02:15:07.909Z,99981.04
2023-05-12T02:17:36.222Z,99982.25
2023-05-12T02:20:05.589Z,99984.20
2023-05-12T02:22:34.184Z,99985.10
2023-05-12T02:25:02.367Z,99983.04
2023-05-12T02:27:32.680Z,99982.93
2023-05-12T02:30:00.898Z,99985.14
2023-05-12T02:32:30.775Z,99987.48
2023-05-12T02:34:59.500Z,99991.14
2023-05-12T02:37:28.040Z,99995.91
2023-05-12T02:39:56.870Z,99996.74
2023-05-12T02:42:29.241Z,99995.33
2023-05-12T02:44:57.568Z,99997.10
2023-05-12T02:47:25.850Z,99995.90
2023-05-12T02:49:55.857Z,99997.39
2023-05-12T02:52:24.584Z,99997.91
2023-05-12T02:54:57.161Z,99993.65
2023-05-12T02:57:34.442Z,99989.80
2023-05-12T03:00:07.641Z,99990.27
2023-05-12T03:02:38.789Z,99990.86
2023-05-12T03:05:09.495Z,99985.92
2023-05-12T03:07:37.778Z,99988.14
2023-05-12T03:10:06.732Z,99986.36
2023-05-12T03:12:34.960Z,99988.23
2023-05-12T03:15:04.872Z,99987.60
2023-05-12T03:17:33.144Z,99994.15
2023-05-12T03:20:01.927Z,99993.21
2023-05-12T03:22:30.891Z,99996.83
2023-05-12T03:25:01.760Z,99993.80
2023-05-12T03:27:31.943Z,99995.45
2023-05-12T03:30:01.416Z,99997.83
2023-05-12T03:32:30.555Z,99999.87
2023-05-12T03:34:58.908Z,99998.75
2023-05-12T03:37:27.893Z,99999.36
2023-05-12T03:39:58.863Z,99999.84
2023-05-12T03:42:27.132Z,99999.70
2023-05-12T03:44:55.733Z,99998.86
2023-05-12T03:47:25.566Z,100005.75
2023-05-12T03:49:54.828Z,100002.11
2023-05-12T03:52:23.579Z,100001.41
2023-05-12T03:54:52.310Z,100006.08
2023-05-12T03:57:20.989Z,100008.11
2023-05-12T03:59:49.287Z,100008.39
2023-05-12T04:02:17.784Z,100011.92
2023-05-12T04:04:47.493Z,100010.67
2023-05-12T04:07:16.305Z,100012.48
2023-05-12T04:09:44.783Z,100016.33
2023-05-12T04:12:13.063Z,100017.89
2023-05-12T04:14:43.504Z,100015.58
2023-05-12T04:17:20.049Z,100019.28
2023-05-12T04:19:48.770Z,100019.92
2023-05-12T04:22:16.881Z,100018.48
2023-05-12T04:24:45.708Z,100020.77
2023-05-12T04:27:14.952Z,100018.53
2023-05-12T04:29:46.626Z,100018.55
2023-05-12T04:32:18.577Z,100024.27
2023-05-12T04:34:48.272Z,100023.95
2023-05-12T04:37:16.536Z,100024.23
2023-05-12T04:40:02.368Z,100024.11
2023-05-12T04:42:31.149Z,100026.47
2023-05-12T04:44:59.833Z,100028.23
2023-05-12T04:47:31.371Z,100024.36
2023-05-12T04:50:02.843Z,100020.19
2023-05-12T04:52:34.178Z,100021.08
2023-05-12T04:55:02.459Z,100024.53
2023-05-12T04:57:30.757Z,100023.38
2023-05-12T04:59:59.601Z,100028.48
2023-05-12T05:02:28.273Z,100024.89
2023-05-12T05:04:57.293Z,100024.11
2023-05-12T05:07:25.658Z,100023.61
2023-05-12T05:09:54.677Z,100029.74
2023-05-12T05:12:23.704Z,100029.35
2023-05-12T05:14:52.318Z,100036.13
2023-05-12T05:17:20.830Z,100032.81
2023-05-12T05:19:59.359Z,100031.38
2023-05-12T05:22:32.102Z,100037.11
2023-05-12T05:25:17.517Z,100033.41
2023-05-12T05:27:46.823Z,100034.42
2023-05-12T05:30:15.398Z,100033.37
2023-05-12T05:32:46.758Z,100030.91
2023-05-12T05:35:15.297Z,100031.50
2023-05-12T05:37:53.961Z,100028.42
2023-05-12T05:40:38.808Z,100030.13
2023-05-12T05:43:17.793Z,100030.61
2023-05-12T05:45:46.318Z,100035.24
2023-05-12T05:48:14.708Z,100039.61
2023-05-12T05:50:43.213Z,100036.96
2023-05-12T05:53:11.843Z,100039.02
2023-05-12T05:55:40.517Z,100040.17
2023-05-12T05:58:09.102Z,100040.20
2023-05-12T06:00:40.793Z,100044.73
2023-05-12T06:03:22.302Z,100041.73
2023-05-12T06:05:50.880Z,100040.33
2023-05-12T06:08:19.587Z,100037.84
2023-05-12T06:10:48.165Z,100040.56
2023-05-12T06:13:16.374Z,100037.54
2023-05-12T06:15:45.198Z,100035.88
2023-05-12T06:18:13.351Z,100038.42
2023-05-12T06:20:42.401Z,100040.63
2023-05-12T06:23:10.979Z,100040.20
2023-05-12T06:25:39.332Z,100047.69
2023-05-12T06:28:08.655Z,100046.41
2023-05-12T06:30:36.958Z,100048.66
2023-05-12T06:33:06.075Z,100054.33
2023-05-12T06:35:34.450Z,100055.26
2023-05-12T06:38:02.623Z,100061.66
2023-05-12T06:40:30.931Z,100059.95
2023-05-12T06:42:59.195Z,100058.64
2023-05-12T06:45:27.929Z,100058.36
2023-05-12T06:47:57.887Z,100059.55
2023-05-12T06:50:26.396Z,100060.40
2023-05-12T06:52:54.728Z,100057.52
2023-05-12T06:55:23.499Z,100055.76
2023-05-12T06:57:55.865Z,100058.49
2023-05-12T07:00:25.961Z,100059.23
2023-05-12T07:02:54.199Z,100054.63
2023-05-12T07:05:22.901Z,100061.17
2023-05-12T07:07:52.470Z,100059.34
2023-05-12T07:10:23.782Z,100059.33
2023-05-12T07:12:52.601Z,100057.98
2023-05-12T07:15:21.252Z,100052.57
2023-05-12T07:17:50.802Z,100053.20
2023-05-12T07:20:19.246Z,100056.72
2023-05-12T07:22:47.602Z,100055.54
2023-05-12T07:25:20.271Z,100060.85
2023-05-12T07:27:49.411Z,100059.02
2023-05-12T07:30:17.858Z,100054.45
2023-05-12T07:32:46.721Z,100055.29
2023-05-12T07:35:14.985Z,100057.58
2023-05-12T07:37:45.245Z,100053.58
2023-05-12T07:40:13.571Z,100054.09
2023-05-12T07:42:41.709Z,100056.60
2023-05-12T07:45:10.229Z,100060.60
2023-05-12T07:47:38.621Z,100057.78
2023-05-12T07:50:07.964Z,100060.97
2023-05-12T07:52:36.092Z,100063.20
2023-05-12T07:55:04.915Z,100061.53
2023-05-12T07:57:33.310Z,100062.58
2023-05-12T08:00:05.123Z,100063.23
2023-05-12T08:02:33.610Z,100063.02
2023-05-12T08:05:02.133Z,100062.85
2023-05-12T08:07:31.196Z,100061.33
2023-05-12T08:09:59.365Z,100064.48
2023-05-12T08:12:35.538Z,100066.33
2023-05-12T08:15:04.189Z,100065.41
2023-05-12T08:17:32.448Z,100061.17
2023-05-12T08:20:04.724Z,100064.00
2023-05-12T08:22:34.079Z,100064.45
2023-05-12T08:25:03.376Z,100068.06
2023-05-12T08:27:32.242Z,100061.05
2023-05-12T08:30:00.914Z,100064.64
2023-05-12T08:32:29.623Z,100066.55
2023-05-12T08:34:58.063Z,100059.15
2023-05-12T08:37:26.670Z,100057.32
2023-05-12T08:39:54.975Z,100057.02
2023-05-12T08:42:44.400Z,100052.14
2023-05-12T08:45:13.375Z,100056.80
2023-05-12T08:47:42.977Z,100050.48
2023-05-12T08:50:13.216Z,100050.03
2023-05-12T08:52:44.591Z,100051.05
2023-05-12T08:55:14.420Z,100050.31
2023-05-12T08:57:45.897Z,100052.65
2023-05-12T09:00:15.428Z,100054.92
2023-05-12T09:02:52.126Z,100056.47
2023-05-12T09:05:23.499Z,100059.82
2023-05-12T09:07:55.224Z,100051.33
2023-05-12T09:10:35.038Z,100054.36
2023-05-12T09:13:16.793Z,100045.16
2023-05-12T09:15:47.780Z,100043.35
2023-05-12T09:18:16.298Z,100048.81
2023-05-12T09:20:44.874Z,100051.30
2023-05-12T09:23:20.465Z,100049.27
2023-05-12T09:26:01.288Z,100049.88
2023-05-12T09:28:42.017Z,100049.75
2023-05-12T09:31:16.511Z,100048.57
2023-05-12T09:33:45.087Z,100048.95
2023-05-12T09:36:23.266Z,100045.52
2023-05-12T09:39:07.313Z,100049.23
2023-05-12T09:41:37.964Z,100044.68
2023-05-12T09:44:08.744Z,100044.64
2023-05-12T09:46:38.694Z,100044.63
2023-05-12T09:49:07.007Z,100043.16
2023-05-12T09:51:35.660Z,100041.90
2023-05-12T09:54:06.409Z,100041.09
2023-05-12T09:56:38.515Z,100037.20
2023-05-12T09:59:07.135Z,100037.41
2023-05-12T10:01:36.128Z,100042.84
2023-05-12T10:04:08.513Z,100035.11
2023-05-12T10:06:47.533Z,100032.06
2023-05-12T10:09:31.684Z,100037.20
2023-05-12T10:12:01.871Z,100039.86
2023-05-12T10:14:31.502Z,100039.80
2023-05-12T10:17:00.616Z,100037.83
2023-05-12T10:19:32.930Z,100030.38
2023-05-12T10:22:01.955Z,100036.98
2023-05-12T10:24:30.427Z,100021.41
2023-05-12T10:26:59.783Z,100023.94
2023-05-12T10:29:31.243Z,100023.09
2023-05-12T10:32:01.455Z,100024.57
2023-05-12T10:34:38.197Z,100022.34
2023-05-12T10:37:11.107Z,100027.23
2023-05-12T10:39:51.777Z,100026.45
2023-05-12T10:42:26.175Z,100027.80
2023-05-12T10:44:56.494Z,100026.65
2023-05-12T10:47:29.540Z,100027.45
2023-05-12T10:50:00.938Z,100029.34
2023-05-12T10:52:29.362Z,100024.06
2023-05-12T10:55:02.846Z,100025.40
2023-05-12T10:57:33.478Z,100019.98
2023-05-12T11:00:03.633Z,100021.07
2023-05-12T11:02:36.070Z,100022.48
2023-05-12T11:05:13.004Z,100019.61
2023-05-12T11:07:50.199Z,100020.73
2023-05-12T11:10:20.054Z,100018.77
2023-05-12T11:12:49.978Z,100021.80
2023-05-12T11:15:18.437Z,100028.21
2023-05-12T11:20:30.847Z,100018.16
2023-05-12T11:22:59.511Z,100021.25
2023-05-12T11:25:31.325Z,100017.42
2023-05-12T11:27:59.976Z,100016.97
2023-05-12T11:30:28.879Z,100019.22
2023-05-12T11:33:03.652Z,100013.19
2023-05-12T11:35:32.689Z,100012.70
2023-05-12T11:38:03.138Z,100011.11
2023-05-12T11:40:31.422Z,100014.61
2023-05-12T11:43:10.588Z,100013.46
2023-05-12T11:45:38.847Z,100016.65
2023-05-12T11:48:12.915Z,100013.18
2023-05-12T11:50:46.289Z,100012.17
2023-05-12T11:53:18.981Z,100015.32
2023-05-12T11:55:51.671Z,100013.30
2023-05-12T11:58:26.728Z,100010.31
2023-05-12T12:00:57.610Z,100016.20
2023-05-12T12:03:26.249Z,100015.78
2023-05-12T12:06:02.717Z,100015.83
2023-05-12T12:08:31.999Z,100020.14
2023-05-12T12:11:03.445Z,100018.70
2023-05-12T12:13:32.574Z,100007.61
2023-05-12T12:16:01.028Z,100002.56
2023-05-12T12:18:29.356Z,100010.65
2023-05-12T12:20:57.771Z,100015.36
2023-05-12T12:23:26.141Z,100024.01
2023-05-12T12:25:54.397Z,100024.80
2023-05-12T12:28:22.500Z,100018.93
2023-05-12T12:30:50.841Z,100015.22
2023-05-12T12:33:20.654Z,100015.10
2023-05-12T12:35:49.544Z,100008.80
2023-05-12T12:38:17.815Z,100009.27
2023-05-12T12:40:46.056Z,100010.78
2023-05-12T12:43:14.491Z,100019.02
2023-05-12T12:45:42.714Z,100019.19
2023-05-12T12:48:11.394Z,100014.98
2023-05-12T12:50:43.149Z,100013.17
2023-05-12T12:53:11.385Z,100011.11
2023-05-12T12:55:40.221Z,100013.02
2023-05-12T12:58:09.370Z,100014.30
2023-05-12T13:00:38.035Z,100010.62
2023-05-12T13:03:08.347Z,100008.60
2023-05-12T13:05:36.774Z,100002.86
2023-05-12T13:08:05.102Z,100008.10
2023-05-12T13:10:33.776Z,100009.18
2023-05-12T13:13:02.452Z,100008.80
2023-05-12T13:15:32.564Z,100005.70
2023-05-12T13:22:37.570Z,100005.42
2023-05-12T13:25:11.430Z,100002.27
2023-05-12T13:27:39.721Z,100004.91
2023-05-12T13:30:08.748Z,100008.09
2023-05-12T13:32:38.010Z,100009.40
2023-05-12T13:35:06.288Z,100012.16
2023-05-12T13:37:34.355Z,100010.02
2023-05-12T13:40:02.580Z,100010.95
2023-05-12T13:42:32.705Z,100012.92
2023-05-12T13:45:01.108Z,100010.52
2023-05-12T13:47:29.505Z,100007.27
2023-05-12T13:49:57.980Z,100000.41
2023-05-12T13:52:26.196Z,99993.09
2023-05-12T13:54:54.482Z,99989.71
2023-05-12T13:57:22.666Z,99991.42
2023-05-12T13:59:52.290Z,99997.99
2023-05-12T14:02:21.139Z,99993.31
2023-05-12T14:04:50.012Z,99998.27
2023-05-12T14:07:19.526Z,100005.73
2023-05-12T14:09:48.203Z,100006.15
2023-05-12T14:12:16.465Z,100004.65
2023-05-12T14:14:49.981Z,100001.30
2023-05-12T14:17:18.937Z,100000.27
2023-05-12T14:19:47.247Z,100001.65
2023-05-12T14:22:25.275Z,100000.91
2023-05-12T14:24:56.033Z,100001.41
2023-05-12T14:27:24.396Z,99999.23
2023-05-12T14:29:52.795Z,99994.81
2023-05-12T14:32:21.074Z,99993.15
2023-05-12T14:34:49.288Z,99996.77
2023-05-12T14:37:17.567Z,99999.59
2023-05-12T14:39:46.290Z,100000.73
2023-05-12T14:42:14.721Z,100001.67
2023-05-12T14:44:45.634Z,100001.48
2023-05-12T14:47:13.949Z,99997.34
2023-05-12T14:49:43.495Z,99997.60
2023-05-12T14:52:13.745Z,99998.30
2023-05-12T14:54:42.597Z,99998.67
2023-05-12T14:57:10.899Z,99998.42
2023-05-12T14:59:39.431Z,99993.11
2023-05-12T15:02:08.339Z,99991.02
2023-05-12T15:04:37.213Z,99997.23
2023-05-12T15:07:12.204Z,99993.68
2023-05-12T15:09:40.558Z,100000.14
2023-05-12T15:12:09.453Z,100000.11
2023-05-12T15:14:37.866Z,100001.31
2023-05-12T15:17:06.358Z,100003.49
2023-05-12T15:19:35.451Z,100001.19
2023-05-12T15:22:03.979Z,100003.78
2023-05-12T15:24:32.305Z,100001.88
2023-05-12T15:27:00.764Z,100004.75
2023-05-12T15:29:29.392Z,100008.16
2023-05-12T15:32:00.355Z,100005.56
2023-05-12T15:34:28.909Z,100010.27
2023-05-12T15:36:58.783Z,100012.79
2023-05-12T15:39:27.080Z,100007.16
2023-05-12T15:41:55.309Z,100013.10
2023-05-12T15:44:23.682Z,100012.88
2023-05-12T15:46:52.524Z,100009.56
2023-05-12T15:49:21.343Z,100009.62
2023-05-12T15:51:49.747Z,100008.16
2023-05-12T15:54:17.912Z,100005.88
2023-05-12T15:56:49.602Z,100001.09
2023-05-12T15:59:17.993Z,100002.88
2023-05-12T16:01:46.366Z,100003.20
2023-05-12T16:04:15.463Z,99998.05
2023-05-12T16:06:43.845Z,99992.70
2023-05-12T16:09:12.733Z,99998.11
2023-05-12T16:11:41.028Z,99992.84
2023-05-12T16:14:09.284Z,99995.45
2023-05-12T16:16:38.516Z,99996.46
2023-05-12T16:19:06.804Z,99992.41
2023-05-12T16:21:35.284Z,99996.70
2023-05-12T16:24:03.672Z,99995.23
2023-05-12T16:26:32.005Z,99996.65
2023-05-12T16:29:00.317Z,99996.17
2023-05-12T16:31:30.973Z,99993.17
2023-05-12T16:33:59.270Z,99995.69
2023-05-12T16:36:30.008Z,99993.94
2023-05-12T16:38:59.726Z,99995.11
2023-05-12T16:41:28.886Z,99995.98
2023-05-12T16:44:00.978Z,99992.55
2023-05-12T16:46:32.782Z,99995.64
2023-05-12T16:49:04.224Z,99997.02
2023-05-12T16:51:39.695Z,99998.23
2023-05-12T16:54:20.047Z,100001.35
2023-05-12T17:00:25.534Z,99999.39
2023-05-12T17:29:37.368Z,100013.35
2023-05-12T17:32:06.156Z,100016.77
2023-05-12T17:34:34.753Z,100011.36
2023-05-12T17:37:06.115Z,100018.11
2023-05-12T17:39:34.419Z,100023.69
2023-05-12T17:42:05.231Z,100028.17
2023-05-12T17:44:33.734Z,100026.11
2023-05-12T17:47:02.991Z,100032.02
2023-05-12T17:49:32.215Z,100031.63
2023-05-12T17:52:04.147Z,100034.93
2023-05-12T17:54:32.846Z,100034.71
2023-05-12T17:57:02.354Z,100038.59
2023-05-12T17:59:34.573Z,100041.84
2023-05-12T18:02:03.636Z,100044.09
2023-05-12T18:04:32.063Z,100046.40
2023-05-12T18:07:00.457Z,100049.95
2023-05-12T18:10:03.843Z,100053.48
2023-05-12T18:12:35.099Z,100056.27
2023-05-12T18:16:33.782Z,100056.13
2023-05-12T18:19:18.978Z,100063.41
2023-05-12T18:25:34.961Z,100064.05
2023-05-12T18:42:26.622Z,100081.66
2023-05-12T18:44:56.443Z,100086.73
2023-05-12T18:47:25.270Z,100086.33
2023-05-12T18:49:53.789Z,100091.04
2023-05-12T18:52:31.804Z,100095.06
2023-05-12T18:55:00.611Z,100099.34
2023-05-12T18:57:29.596Z,100098.41
2023-05-12T18:59:57.876Z,100102.41
2023-05-12T19:02:26.583Z,100104.34
2023-05-12T19:04:56.066Z,100103.64
2023-05-12T19:07:25.082Z,100107.27
2023-05-12T19:09:54.004Z,100107.42
2023-05-12T19:12:24.710Z,100116.32
2023-05-12T19:14:53.432Z,100117.46
2023-05-12T19:17:22.285Z,100123.14
2023-05-12T19:19:53.966Z,100126.95
2023-05-12T19:22:24.908Z,100125.03
2023-05-12T19:25:00.944Z,100124.08
2023-05-12T19:27:30.973Z,100123.00
2023-05-12T19:30:02.591Z,100129.54
2023-05-12T19:32:34.389Z,100135.17
2023-05-12T19:35:07.248Z,100133.77
2023-05-12T19:37:35.690Z,100135.58
2023-05-12T19:40:07.797Z,100136.91
2023-05-12T19:42:38.047Z,100137.70
2023-05-12T19:45:06.867Z,100137.59
2023-05-12T19:47:38.883Z,100139.35
2023-05-12T19:50:18.739Z,100139.45
2023-05-12T19:52:50.986Z,100140.36
2023-05-12T19:55:24.773Z,100143.11
2023-05-12T19:58:16.841Z,100144.95
2023-05-12T20:00:45.283Z,100148.30
2023-05-12T20:03:21.730Z,100153.72
2023-05-12T20:05:53.751Z,100156.77
2023-05-12T20:08:22.066Z,100155.50
2023-05-12T20:10:50.235Z,100160.91
2023-05-12T20:13:39.143Z,100162.16
2023-05-12T20:16:07.513Z,100159.65
2023-05-12T20:18:35.979Z,100160.41
2023-05-12T20:21:04.488Z,100162.98
2023-05-12T20:23:37.443Z,100161.91
2023-05-12T20:26:05.844Z,100165.64
2023-05-12T20:31:23.936Z,100171.30
2023-05-12T20:33:59.314Z,100174.65
2023-05-12T20:36:30.630Z,100175.16
2023-05-12T20:39:10.552Z,100176.64
2023-05-12T20:41:43.835Z,100175.31
2023-05-12T20:44:12.550Z,100178.17
2023-05-12T20:46:50.930Z,100176.79
2023-05-12T20:49:19.490Z,100178.45
2023-05-12T20:51:48.577Z,100183.52
2023-05-12T20:54:25.719Z,100185.42
2023-05-12T20:56:54.100Z,100186.45
2023-05-12T20:59:33.637Z,100181.91
2023-05-12T21:02:02.639Z,100188.02
2023-05-12T21:04:31.115Z,100188.08
2023-05-12T21:06:59.366Z,100188.46
2023-05-12T21:09:30.230Z,100190.09
2023-05-12T21:11:59.205Z,100194.30
2023-05-12T21:14:47.880Z,100198.55
2023-05-12T21:17:17.493Z,100193.84
2023-05-12T21:19:45.935Z,100196.38
2023-05-12T21:22:19.508Z,100200.20
2023-05-12T21:24:49.826Z,100198.46
2023-05-12T21:27:21.227Z,100201.61
2023-05-12T21:29:55.163Z,100203.08
2023-05-12T21:32:28.151Z,100206.40
2023-05-12T21:35:04.186Z,100204.16
2023-05-12T21:37:32.491Z,100206.85
2023-05-12T21:40:00.849Z,100207.07
2023-05-12T21:42:30.339Z,100206.40
2023-05-12T21:44:58.549Z,100209.73
2023-05-12T21:47:27.344Z,100210.55
2023-05-12T21:49:57.092Z,100213.05
2023-05-12T21:52:25.320Z,100211.81
2023-05-12T21:54:53.580Z,100217.71
2023-05-12T21:57:31.220Z,100219.84
2023-05-12T22:00:04.316Z,100221.79
2023-05-12T22:02:32.856Z,100220.27
2023-05-12T22:05:13.611Z,100219.95
2023-05-12T22:07:42.210Z,100222.10
2023-05-12T22:10:10.848Z,100220.81
2023-05-12T22:12:42.640Z,100222.39
2023-05-12T22:15:11.631Z,100224.06
2023-05-12T22:17:40.043Z,100220.33
2023-05-12T22:20:12.633Z,100221.60
2023-05-12T22:22:40.906Z,100221.80
2023-05-12T22:25:09.782Z,100221.64
2023-05-12T22:27:41.373Z,100220.15
2023-05-12T22:30:10.730Z,100222.98
2023-05-12T22:32:39.700Z,100221.56
2023-05-12T22:35:09.098Z,100225.02
2023-05-12T22:37:37.519Z,100233.16
2023-05-12T22:40:09.724Z,100231.20
2023-05-12T22:42:38.066Z,100231.80
2023-05-12T22:45:10.149Z,100232.48
2023-05-12T22:47:39.281Z,100235.38
2023-05-12T22:50:08.029Z,100235.42
2023-05-12T22:52:36.391Z,100232.13
2023-05-12T22:55:05.109Z,100235.04
2023-05-12T22:57:35.678Z,100233.79
2023-05-12T23:00:05.281Z,100234.70
2023-05-12T23:02:46.932Z,100234.70
2023-05-12T23:05:16.281Z,100233.64
2023-05-12T23:08:01.992Z,100233.16
2023-05-12T23:10:33.875Z,100232.02
2023-05-12T23:13:11.872Z,100233.19
2023-05-12T23:15:43.411Z,100232.34
2023-05-12T23:18:32.202Z,100235.44
2023-05-12T23:21:13.841Z,100235.69
2023-05-12T23:23:57.778Z,100235.15
2023-05-12T23:26:31.155Z,100236.42
2023-05-12T23:29:06.909Z,100236.11
2023-05-12T23:31:37.623Z,100235.61
2023-05-12T23:34:05.910Z,100232.56
2023-05-12T23:36:49.835Z,100234.62
2023-05-12T23:39:26.198Z,100234.40
2023-05-12T23:42:06.680Z,100232.97
2023-05-12T23:44:45.660Z,100228.52
2023-05-12T23:47:23.886Z,100230.17
2023-05-12T23:49:58.800Z,100229.96
2023-05-12T23:52:36.494Z,100231.95
2023-05-12T23:55:11.957Z,100231.86
2023-05-12T23:57:40.873Z,100228.16
